Canton, Oklahoma
Current Conditions -  °F | °C
As of 4:55 PM on Thursday 27 Nov 2014 (Local Time) from KJWG Reporting Station
Clear Clear  
Wind Chill: 46°   Ceiling: Unl
Heat Index: 50°   Visibility: 10mi
Dew Point: 28°   Wind: 9mph
Humidity: 43%   Direction: 180°S
Pressure: 30.3"   Gusts: NA
Location:  36.05°N, 98.59°W
Report Text: KJWG 272255Z AUTO 18008KT 10SM CLR 10/M02 A3030 RMK AO2 T00981023
Loading
Personal Weather Stations






























Interactive Weather Map New forecast layout! Learn more

10-Day Weather Forecast

Advertisements
Track Severe Weather on mobile